createdAt,value
2018-04-17T00:00:53.136Z,0
2018-04-17T00:01:53.114Z,0
2018-04-17T00:02:52.830Z,0
2018-04-17T00:03:52.819Z,0
2018-04-17T00:04:53.073Z,0
2018-04-17T00:05:53.064Z,0
2018-04-17T00:06:53.049Z,0
2018-04-17T00:07:52.777Z,0
2018-04-17T00:08:52.766Z,0
2018-04-17T00:09:52.492Z,0
2018-04-17T00:10:52.741Z,0
2018-04-17T00:11:52.735Z,0
2018-04-17T00:12:52.722Z,0
2018-04-17T00:13:52.987Z,0
2018-04-17T00:14:52.958Z,0
2018-04-17T00:15:52.692Z,0
2018-04-17T00:16:52.950Z,0
2018-04-17T00:17:52.665Z,0
2018-04-17T00:18:52.659Z,0
2018-04-17T00:19:52.650Z,0
2018-04-17T00:20:52.900Z,0
2018-04-17T00:21:52.362Z,0
2018-04-17T00:22:52.875Z,0
2018-04-17T00:23:52.339Z,0
2018-04-17T00:24:52.873Z,0
2018-04-17T00:25:52.585Z,0
2018-04-17T00:26:52.837Z,0
2018-04-17T00:27:52.569Z,0
2018-04-17T00:28:52.556Z,0
2018-04-17T00:29:52.824Z,0
2018-04-17T00:30:52.795Z,0
2018-04-17T00:31:52.794Z,0
2018-04-17T00:32:52.521Z,0
2018-04-17T00:33:52.765Z,0
2018-04-17T00:34:52.225Z,0
2018-04-17T00:35:52.742Z,0
2018-04-17T00:36:52.483Z,0
2018-04-17T00:37:52.461Z,0
2018-04-17T00:38:52.473Z,0
2018-04-17T00:39:52.746Z,0
2018-04-17T00:40:52.437Z,0
2018-04-17T00:41:52.423Z,0
2018-04-17T00:42:52.413Z,0
2018-04-17T00:43:52.407Z,0
2018-04-17T00:44:51.859Z,0
2018-04-17T00:45:52.382Z,0
2018-04-17T00:46:52.110Z,0
2018-04-17T00:47:52.625Z,0
2018-04-17T00:48:52.365Z,0
2018-04-17T00:49:52.611Z,0
2018-04-17T00:50:52.600Z,0
2018-04-17T00:51:52.324Z,0
2018-04-17T00:52:52.047Z,0
2018-04-17T00:53:52.301Z,0
2018-04-17T00:54:52.556Z,0
2018-04-17T00:55:52.020Z,0
2018-04-17T00:56:52.405Z,0
2018-04-17T00:57:52.529Z,0
2018-04-17T00:58:52.259Z,0
2018-04-17T00:59:52.248Z,0
2018-04-17T01:00:51.967Z,0
2018-04-17T01:01:52.221Z,0
2018-04-17T01:02:52.485Z,0
2018-04-17T01:03:52.472Z,0
2018-04-17T01:04:51.929Z,0
2018-04-17T01:05:52.192Z,0
2018-04-17T01:06:52.187Z,0
2018-04-17T01:07:51.899Z,0
2018-04-17T01:08:52.418Z,0
2018-04-17T01:09:52.159Z,0
2018-04-17T01:10:52.406Z,0
2018-04-17T01:11:52.133Z,0
2018-04-17T01:12:51.848Z,0
2018-04-17T01:13:51.843Z,0
2018-04-17T01:14:52.102Z,0
2018-04-17T01:15:52.349Z,0
2018-04-17T01:16:52.092Z,0
2018-04-17T01:17:52.335Z,0
2018-04-17T01:18:52.062Z,0
2018-04-17T01:19:52.314Z,0
2018-04-17T01:20:51.507Z,0
2018-04-17T01:21:52.289Z,0
2018-04-17T01:22:52.277Z,0
2018-04-17T01:23:52.012Z,0
2018-04-17T01:24:51.734Z,0
2018-04-17T01:25:52.255Z,0
2018-04-17T01:26:51.977Z,0
2018-04-17T01:27:51.965Z,0
2018-04-17T01:28:51.956Z,0
2018-04-17T01:29:51.679Z,0
2018-04-17T01:30:52.200Z,0
2018-04-17T01:31:51.935Z,0
2018-04-17T01:32:51.920Z,0
2018-04-17T01:33:51.914Z,0
2018-04-17T01:34:52.163Z,0
2018-04-17T01:35:51.625Z,0
2018-04-17T01:36:51.888Z,0
2018-04-17T01:37:51.882Z,0
2018-04-17T01:38:51.599Z,0
2018-04-17T01:39:52.122Z,0
2018-04-17T01:40:51.845Z,0
2018-04-17T01:41:52.105Z,0
2018-04-17T01:42:51.833Z,0
2018-04-17T01:43:52.079Z,0
2018-04-17T01:44:51.802Z,0
2018-04-17T01:45:52.052Z,0
2018-04-17T01:46:51.785Z,0
2018-04-17T01:47:51.772Z,0
2018-04-17T01:48:51.768Z,0
2018-04-17T01:49:51.752Z,0
2018-04-17T01:50:52.008Z,0
2018-04-17T01:51:51.732Z,0
2018-04-17T01:52:51.720Z,0
2018-04-17T01:53:51.451Z,0
2018-04-17T01:54:51.446Z,0
2018-04-17T01:55:51.695Z,0
2018-04-17T01:56:51.953Z,0
2018-04-17T01:57:51.939Z,0
2018-04-17T01:58:51.952Z,0
2018-04-17T01:59:51.659Z,0
2018-04-17T02:00:51.921Z,0
2018-04-17T02:01:51.636Z,0
2018-04-17T02:02:51.095Z,0
2018-04-17T02:03:51.893Z,0
2018-04-17T02:04:51.911Z,0
2018-04-17T02:05:51.601Z,0
2018-04-17T02:06:51.587Z,0
2018-04-17T02:07:51.320Z,0
2018-04-17T02:08:51.584Z,0
2018-04-17T02:09:51.828Z,0
2018-04-17T02:10:51.815Z,0
2018-04-17T02:11:51.540Z,0
2018-04-17T02:12:51.523Z,0
2018-04-17T02:13:51.776Z,0
2018-04-17T02:14:51.242Z,0
2018-04-17T02:15:51.763Z,0
2018-04-17T02:16:51.490Z,0
2018-04-17T02:17:51.741Z,0
2018-04-17T02:18:51.852Z,0
2018-04-17T02:19:51.190Z,0
2018-04-17T02:20:51.711Z,0
2018-04-17T02:21:51.708Z,0
2018-04-17T02:22:51.421Z,0
2018-04-17T02:23:51.147Z,0
2018-04-17T02:24:51.669Z,0
2018-04-17T02:25:51.668Z,0
2018-04-17T02:26:51.384Z,0
2018-04-17T02:27:51.104Z,0
2018-04-17T02:28:51.627Z,0
2018-04-17T02:29:50.820Z,0
2018-04-17T02:30:51.610Z,0
2018-04-17T02:31:51.599Z,0
2018-04-17T02:32:51.330Z,0
2018-04-17T02:33:51.573Z,0
2018-04-17T02:34:51.302Z,0
2018-04-17T02:35:51.290Z,0
2018-04-17T02:36:51.275Z,0
2018-04-17T02:37:51.273Z,0
2018-04-17T02:38:51.254Z,0
2018-04-17T02:39:51.542Z,0
2018-04-17T02:40:51.255Z,0
2018-04-17T02:41:51.227Z,0
2018-04-17T02:42:51.486Z,0
2018-04-17T02:43:50.945Z,0
2018-04-17T02:44:50.924Z,0
2018-04-17T02:45:51.445Z,0
2018-04-17T02:46:51.170Z,0
2018-04-17T02:47:51.437Z,0
2018-04-17T02:48:51.413Z,0
2018-04-17T02:49:51.427Z,0
2018-04-17T02:50:51.391Z,0
2018-04-17T02:51:51.118Z,0
2018-04-17T02:52:51.374Z,0
2018-04-17T02:53:51.406Z,0
2018-04-17T02:54:51.094Z,0
2018-04-17T02:55:50.816Z,0
2018-04-17T02:56:51.326Z,0
2018-04-17T02:57:51.318Z,0
2018-04-17T02:58:50.775Z,0
2018-04-17T02:59:51.290Z,0
2018-04-17T03:00:51.285Z,0
2018-04-17T03:01:51.031Z,0
2018-04-17T03:02:50.996Z,0
2018-04-17T03:03:50.976Z,0
2018-04-17T03:04:50.708Z,0
2018-04-17T03:05:51.216Z,0
2018-04-17T03:06:50.946Z,0
2018-04-17T03:07:50.930Z,0
2018-04-17T03:08:50.923Z,0
2018-04-17T03:09:51.184Z,0
2018-04-17T03:10:51.168Z,0
2018-04-17T03:11:51.210Z,0
2018-04-17T03:12:50.869Z,0
2018-04-17T03:13:50.876Z,0
2018-04-17T03:14:50.854Z,0
2018-04-17T03:15:50.844Z,0
2018-04-17T03:16:50.835Z,0
2018-04-17T03:17:50.557Z,0
2018-04-17T03:18:51.071Z,0
2018-04-17T03:19:51.068Z,0
2018-04-17T03:20:51.048Z,0
2018-04-17T03:21:50.779Z,0
2018-04-17T03:22:51.026Z,0
2018-04-17T03:23:50.905Z,0
2018-04-17T03:24:50.737Z,0
2018-04-17T03:25:51.053Z,0
2018-04-17T03:26:50.718Z,0
2018-04-17T03:27:50.705Z,0
2018-04-17T03:28:50.966Z,0
2018-04-17T03:29:50.698Z,0
2018-04-17T03:30:50.674Z,0
2018-04-17T03:31:50.679Z,0
2018-04-17T03:32:50.659Z,0
2018-04-17T03:33:50.910Z,0
2018-04-17T03:34:50.362Z,0
2018-04-17T03:35:50.888Z,0
2018-04-17T03:36:50.605Z,0
2018-04-17T03:37:50.326Z,0
2018-04-17T03:38:50.844Z,0
2018-04-17T03:39:50.307Z,0
2018-04-17T03:40:50.558Z,0
2018-04-17T03:41:50.553Z,0
2018-04-17T03:42:50.551Z,0
2018-04-17T03:43:50.527Z,0
2018-04-17T03:44:50.528Z,0
2018-04-17T03:45:50.770Z,0
2018-04-17T03:46:50.776Z,0
2018-04-17T03:47:50.481Z,0
2018-04-17T03:48:50.474Z,4
2018-04-17T03:49:50.728Z,4
2018-04-17T03:50:50.446Z,0
2018-04-17T03:51:50.448Z,0
2018-04-17T03:52:50.738Z,4
2018-04-17T03:53:50.417Z,4
2018-04-17T03:54:50.140Z,4
2018-04-17T03:55:50.660Z,8
2018-04-17T03:56:50.658Z,4
2018-04-17T03:57:50.380Z,8
2018-04-17T03:58:50.365Z,8
2018-04-17T03:59:50.621Z,12
2018-04-17T04:00:50.608Z,12
2018-04-17T04:01:50.074Z,12
2018-04-17T04:02:50.362Z,16
2018-04-17T04:03:50.577Z,20
2018-04-17T04:04:50.567Z,24
2018-04-17T04:05:50.285Z,24
2018-04-17T04:06:49.747Z,28
2018-04-17T04:07:50.266Z,36
2018-04-17T04:08:50.259Z,40
2018-04-17T04:09:50.509Z,44
2018-04-17T04:10:50.502Z,44
2018-04-17T04:11:49.961Z,48
2018-04-17T04:12:50.216Z,52
2018-04-17T04:13:50.471Z,60
2018-04-17T04:14:50.197Z,64
2018-04-17T04:15:49.942Z,76
2018-04-17T04:16:49.960Z,88
2018-04-17T04:17:50.432Z,104
2018-04-17T04:18:50.421Z,124
2018-04-17T04:19:50.413Z,140
2018-04-17T04:20:50.403Z,144
2018-04-17T04:21:50.386Z,144
2018-04-17T04:22:49.843Z,140
2018-04-17T04:23:49.837Z,132
2018-04-17T04:24:50.093Z,128
2018-04-17T04:25:49.811Z,136
2018-04-17T04:26:50.068Z,148
2018-04-17T04:27:50.324Z,168
2018-04-17T04:28:50.046Z,188
2018-04-17T04:29:50.311Z,184
2018-04-17T04:30:50.027Z,180
2018-04-17T04:31:49.750Z,192
2018-04-17T04:32:50.006Z,200
2018-04-17T04:33:50.265Z,204
2018-04-17T04:34:50.092Z,220
2018-04-17T04:35:49.706Z,236
2018-04-17T04:36:49.960Z,260
2018-04-17T04:37:50.223Z,288
2018-04-17T04:38:49.942Z,316
2018-04-17T04:39:49.668Z,336
2018-04-17T04:40:49.925Z,348
2018-04-17T04:41:49.920Z,336
2018-04-17T04:42:50.165Z,332
2018-04-17T04:43:49.891Z,356
2018-04-17T04:44:49.896Z,408
2018-04-17T04:45:50.156Z,448
2018-04-17T04:46:50.134Z,492
2018-04-17T04:47:49.856Z,524
2018-04-17T04:48:50.110Z,536
2018-04-17T04:49:49.842Z,524
2018-04-17T04:50:50.097Z,540
2018-04-17T04:51:49.819Z,600
2018-04-17T04:52:50.067Z,688
2018-04-17T04:53:49.799Z,768
2018-04-17T04:54:50.053Z,852
2018-04-17T04:55:49.778Z,904
2018-04-17T04:56:50.043Z,904
2018-04-17T04:57:49.883Z,904
2018-04-17T04:58:49.476Z,908
2018-04-17T04:59:50.005Z,920
2018-04-17T05:00:49.997Z,956
2018-04-17T05:01:49.978Z,996
2018-04-17T05:02:49.970Z,1052
2018-04-17T05:03:49.696Z,1116
2018-04-17T05:04:50.056Z,1176
2018-04-17T05:05:49.941Z,1216
2018-04-17T05:06:49.670Z,1256
2018-04-17T05:07:49.664Z,1308
2018-04-17T05:08:49.652Z,1356
2018-04-17T05:09:49.372Z,1424
2018-04-17T05:10:49.363Z,1504
2018-04-17T05:11:49.885Z,1612
2018-04-17T05:12:49.926Z,1760
2018-04-17T05:13:49.865Z,1896
2018-04-17T05:14:49.591Z,2012
2018-04-17T05:15:49.314Z,2028
2018-04-17T05:16:49.567Z,1968
2018-04-17T05:17:49.558Z,1876
2018-04-17T05:18:49.542Z,1852
2018-04-17T05:19:49.539Z,1876
2018-04-17T05:20:49.269Z,1916
2018-04-17T05:21:49.261Z,1908
2018-04-17T05:22:49.784Z,1848
2018-04-17T05:23:49.626Z,1792
2018-04-17T05:24:49.758Z,1752
2018-04-17T05:25:49.756Z,1732
2018-04-17T05:26:49.210Z,1792
2018-04-17T05:27:49.467Z,1856
2018-04-17T05:28:49.457Z,1940
2018-04-17T05:29:49.185Z,2056
2018-04-17T05:30:49.433Z,2168
2018-04-17T05:31:49.430Z,2420
2018-04-17T05:32:49.419Z,2640
2018-04-17T05:33:49.413Z,2748
2018-04-17T05:34:49.401Z,2868
2018-04-17T05:35:49.664Z,2888
2018-04-17T05:36:49.657Z,2808
2018-04-17T05:37:49.370Z,2696
2018-04-17T05:38:49.100Z,2640
2018-04-17T05:39:49.620Z,2616
2018-04-17T05:40:49.352Z,2600
2018-04-17T05:41:49.616Z,3004
2018-04-17T05:42:49.592Z,3176
2018-04-17T05:43:49.050Z,3068
2018-04-17T05:44:49.570Z,2960
2018-04-17T05:45:49.016Z,2840
2018-04-17T05:46:49.551Z,2760
2018-04-17T05:47:49.002Z,2948
2018-04-17T05:48:49.222Z,3244
2018-04-17T05:49:49.492Z,3516
2018-04-17T05:50:49.459Z,3596
2018-04-17T05:51:49.187Z,3428
2018-04-17T05:52:49.429Z,3540
2018-04-17T05:53:49.161Z,3696
2018-04-17T05:54:49.146Z,3796
2018-04-17T05:55:48.961Z,3580
2018-04-17T05:56:49.403Z,3572
2018-04-17T05:57:49.385Z,3824
2018-04-17T05:58:48.850Z,3924
2018-04-17T05:59:49.099Z,4232
2018-04-17T06:00:49.349Z,4380
2018-04-17T06:01:49.347Z,4292
2018-04-17T06:02:49.337Z,4128
2018-04-17T06:03:49.324Z,3988
2018-04-17T06:04:49.055Z,3784
2018-04-17T06:05:49.311Z,3500
2018-04-17T06:06:49.039Z,3476
2018-04-17T06:07:48.778Z,3520
2018-04-17T06:08:49.028Z,3648
2018-04-17T06:09:49.281Z,3900
2018-04-17T06:10:49.266Z,3880
2018-04-17T06:11:49.263Z,3876
2018-04-17T06:12:48.995Z,4152
2018-04-17T06:13:49.441Z,4068
2018-04-17T06:14:49.232Z,4044
2018-04-17T06:15:48.963Z,4220
2018-04-17T06:16:48.954Z,4328
2018-04-17T06:17:49.207Z,4228
2018-04-17T06:18:49.195Z,3980
2018-04-17T06:19:48.958Z,3976
2018-04-17T06:20:49.185Z,3772
2018-04-17T06:21:49.166Z,3592
2018-04-17T06:22:49.161Z,3560
2018-04-17T06:23:48.896Z,3932
2018-04-17T06:24:48.881Z,4084
2018-04-17T06:25:49.134Z,4264
2018-04-17T06:26:49.122Z,4436
2018-04-17T06:27:48.599Z,4656
2018-04-17T06:28:48.849Z,5104
2018-04-17T06:29:48.838Z,5256
2018-04-17T06:30:48.577Z,5796
2018-04-17T06:31:49.084Z,6332
2018-04-17T06:32:48.821Z,6672
2018-04-17T06:33:49.075Z,6388
2018-04-17T06:34:49.062Z,6032
2018-04-17T06:35:49.061Z,6204
2018-04-17T06:36:48.525Z,6272
2018-04-17T06:37:48.783Z,6584
2018-04-17T06:38:49.037Z,7440
2018-04-17T06:39:48.502Z,8848
2018-04-17T06:40:49.013Z,9984
2018-04-17T06:41:49.103Z,11052
2018-04-17T06:42:48.993Z,13032
2018-04-17T06:43:48.729Z,14488
2018-04-17T06:44:48.722Z,15680
2018-04-17T06:45:48.968Z,16160
2018-04-17T06:46:48.703Z,14516
2018-04-17T06:47:48.867Z,12448
2018-04-17T06:48:48.434Z,10852
2018-04-17T06:49:48.680Z,9928
2018-04-17T06:50:48.928Z,9720
2018-04-17T06:51:48.930Z,9320
2018-04-17T06:52:48.878Z,9068
2018-04-17T06:53:48.916Z,9056
2018-04-17T06:54:48.910Z,8740
2018-04-17T06:55:48.645Z,7988
2018-04-17T06:56:48.902Z,7684
2018-04-17T06:57:48.892Z,7948
2018-04-17T06:58:48.630Z,8220
2018-04-17T06:59:48.883Z,8356
2018-04-17T07:00:48.869Z,8276
2018-04-17T07:01:48.606Z,8248
2018-04-17T07:02:48.855Z,8304
2018-04-17T07:03:48.331Z,8324
2018-04-17T07:04:48.594Z,8440
2018-04-17T07:05:48.839Z,8616
2018-04-17T07:06:48.573Z,8852
2018-04-17T07:07:48.840Z,8988
2018-04-17T07:08:48.563Z,9116
2018-04-17T07:09:48.551Z,9200
2018-04-17T07:10:48.857Z,9232
2018-04-17T07:11:48.960Z,9464
2018-04-17T07:12:48.793Z,9980
2018-04-17T07:13:48.836Z,10516
2018-04-17T07:14:48.543Z,11128
2018-04-17T07:15:48.519Z,10640
2018-04-17T07:16:48.510Z,10512
2018-04-17T07:17:48.513Z,9940
2018-04-17T07:19:20.343Z,9648
2018-04-17T07:19:48.755Z,9688
2018-04-17T07:20:48.234Z,9584
2018-04-17T07:21:48.224Z,9784
2018-04-17T07:22:47.958Z,10048
2018-04-17T07:23:48.664Z,10156
2018-04-17T07:24:48.210Z,10336
2018-04-17T07:25:48.715Z,10628
2018-04-17T07:26:48.456Z,10640
2018-04-17T07:27:48.238Z,10844
2018-04-17T07:28:48.436Z,11364
2018-04-17T07:29:48.176Z,11504
2018-04-17T07:30:48.431Z,11164
2018-04-17T07:31:48.433Z,10800
2018-04-17T07:32:48.177Z,9732
2018-04-17T07:33:48.411Z,9568
2018-04-17T07:34:48.822Z,9716
2018-04-17T07:35:48.654Z,10072
2018-04-17T07:36:48.649Z,8948
2018-04-17T07:37:48.129Z,9468
2018-04-17T07:38:48.641Z,9124
2018-04-17T07:39:48.638Z,8680
2018-04-17T07:40:48.373Z,8480
2018-04-17T07:41:48.110Z,8460
2018-04-17T07:42:48.628Z,8796
2018-04-17T07:43:48.630Z,9036
2018-04-17T07:44:48.347Z,9652
2018-04-17T07:45:48.087Z,12176
2018-04-17T07:46:48.338Z,13216
2018-04-17T07:47:48.590Z,12508
2018-04-17T07:48:48.067Z,12532
2018-04-17T07:49:48.067Z,12064
2018-04-17T07:50:48.316Z,13568
2018-04-17T07:51:48.573Z,16128
2018-04-17T07:52:48.307Z,13948
2018-04-17T07:53:48.567Z,12284
2018-04-17T07:54:48.560Z,11532
2018-04-17T07:55:48.690Z,10752
2018-04-17T07:56:48.286Z,10516
2018-04-17T07:57:48.544Z,11200
2018-04-17T07:58:48.275Z,11720
2018-04-17T07:59:48.018Z,11392
2018-04-17T08:00:48.263Z,12200
2018-04-17T08:01:48.265Z,10684
2018-04-17T08:02:48.258Z,8804
2018-04-17T08:03:48.249Z,8656
2018-04-17T08:04:48.503Z,9408
2018-04-17T08:05:48.239Z,10264
2018-04-17T08:06:48.234Z,12424
2018-04-17T08:07:48.226Z,11876
2018-04-17T08:08:47.964Z,12792
2018-04-17T08:09:48.488Z,13140
2018-04-17T08:10:48.468Z,12748
2018-04-17T08:11:48.519Z,13604
2018-04-17T08:12:48.472Z,13564
2018-04-17T08:13:48.470Z,12756
2018-04-17T08:14:47.934Z,12400
2018-04-17T08:15:48.454Z,12776
2018-04-17T08:16:48.188Z,13076
2018-04-17T08:17:48.199Z,11588
2018-04-17T08:18:48.174Z,13128
2018-04-17T08:19:48.426Z,13856
2018-04-17T08:20:48.427Z,13040
2018-04-17T08:21:48.157Z,11100
2018-04-17T08:22:48.153Z,10476
2018-04-17T08:23:48.409Z,10460
2018-04-17T08:24:47.891Z,11376
2018-04-17T08:25:47.879Z,13016
2018-04-17T08:26:48.131Z,13852
2018-04-17T08:27:47.877Z,12556
2018-04-17T08:28:48.382Z,10896
2018-04-17T08:29:48.128Z,10256
2018-04-17T08:30:48.112Z,10496
2018-04-17T08:31:48.118Z,10932
2018-04-17T08:32:48.366Z,11236
2018-04-17T08:33:48.101Z,11320
2018-04-17T08:34:47.841Z,11608
2018-04-17T08:35:48.101Z,11332
2018-04-17T08:36:48.178Z,11716
2018-04-17T08:37:48.339Z,12072
2018-04-17T08:38:48.335Z,12992
2018-04-17T08:39:48.076Z,12572
2018-04-17T08:40:47.811Z,11768
2018-04-17T08:41:48.064Z,10660
2018-04-17T08:42:48.168Z,10780
2018-04-17T08:43:48.315Z,11352
2018-04-17T08:44:48.048Z,10568
2018-04-17T08:45:48.311Z,9972
2018-04-17T08:46:47.780Z,10028
2018-04-17T08:47:48.050Z,9352
2018-04-17T08:48:48.296Z,8968
2018-04-17T08:49:48.285Z,9532
2018-04-17T08:50:48.283Z,9772
2018-04-17T08:51:47.761Z,9564
2018-04-17T08:52:48.277Z,9408
2018-04-17T08:53:48.267Z,9448
2018-04-17T08:54:48.261Z,9608
2018-04-17T08:55:48.260Z,9844
2018-04-17T08:56:48.256Z,9864
2018-04-17T08:57:48.267Z,9600
2018-04-17T08:58:48.004Z,9548
2018-04-17T08:59:48.315Z,9360
2018-04-17T09:00:48.029Z,9004
2018-04-17T09:01:48.245Z,9020
2018-04-17T09:02:48.225Z,9036
2018-04-17T09:03:48.221Z,9164
2018-04-17T09:04:48.221Z,8940
2018-04-17T09:05:47.702Z,8540
2018-04-17T09:06:48.211Z,8468
2018-04-17T09:07:48.205Z,8388
2018-04-17T09:08:48.206Z,8376
2018-04-17T09:09:47.943Z,7828
2018-04-17T09:10:47.677Z,7464
2018-04-17T09:11:47.782Z,7272
2018-04-17T09:12:48.185Z,7356
2018-04-17T09:13:48.186Z,7356
2018-04-17T09:14:47.656Z,7236
2018-04-17T09:15:48.171Z,7160
2018-04-17T09:16:47.649Z,7312
2018-04-17T09:17:47.903Z,7512
2018-04-17T09:18:48.162Z,7288
2018-04-17T09:19:47.633Z,7068
2018-04-17T09:20:47.885Z,6832
2018-04-17T09:21:48.139Z,6496
2018-04-17T09:22:47.882Z,6772
2018-04-17T09:23:47.611Z,7236
2018-04-17T09:24:47.864Z,7164
2018-04-17T09:25:47.871Z,6992
2018-04-17T09:26:48.125Z,7336
2018-04-17T09:27:47.854Z,7688
2018-04-17T09:28:48.112Z,7872
2018-04-17T09:29:47.584Z,7516
2018-04-17T09:30:47.854Z,7592
2018-04-17T09:31:47.834Z,7840
2018-04-17T09:32:48.089Z,8176
2018-04-17T09:33:47.877Z,8196
2018-04-17T09:34:47.823Z,8500
2018-04-17T09:35:47.813Z,8052
2018-04-17T09:36:47.550Z,7120
2018-04-17T09:37:47.808Z,6680
2018-04-17T09:38:47.541Z,6720
2018-04-17T09:39:47.797Z,6812
2018-04-17T09:40:48.050Z,7016
2018-04-17T09:41:47.799Z,6944
2018-04-17T09:42:48.051Z,6628
2018-04-17T09:43:47.772Z,6176
2018-04-17T09:44:47.770Z,6312
2018-04-17T09:45:48.025Z,6704
2018-04-17T09:46:47.766Z,7300
2018-04-17T09:47:47.755Z,7700
2018-04-17T09:48:47.492Z,8040
2018-04-17T09:49:48.002Z,8376
2018-04-17T09:50:48.005Z,8608
2018-04-17T09:51:48.006Z,8484
2018-04-17T09:52:47.481Z,7740
2018-04-17T09:53:47.986Z,6980
2018-04-17T09:54:47.729Z,6836
2018-04-17T09:55:47.720Z,7508
2018-04-17T09:56:47.716Z,8348
2018-04-17T09:57:47.972Z,9232
2018-04-17T09:58:47.723Z,9820
2018-04-17T09:59:47.965Z,10048
2018-04-17T10:00:47.445Z,9644
2018-04-17T10:01:47.689Z,9028
2018-04-17T10:02:47.946Z,8388
2018-04-17T10:03:47.688Z,8192
2018-04-17T10:04:47.945Z,7580
2018-04-17T10:05:47.674Z,6780
2018-04-17T10:06:47.411Z,6532
2018-04-17T10:07:47.926Z,6520
2018-04-17T10:08:48.074Z,6988
2018-04-17T10:09:47.658Z,7032
2018-04-17T10:10:47.655Z,7048
2018-04-17T10:11:47.644Z,7224
2018-04-17T10:12:47.905Z,7812
2018-04-17T10:13:47.897Z,8688
2018-04-17T10:14:47.632Z,8520
2018-04-17T10:15:47.895Z,7488
2018-04-17T10:16:47.892Z,6636
2018-04-17T10:17:47.618Z,6332
2018-04-17T10:18:47.872Z,6388
2018-04-17T10:19:47.873Z,6424
2018-04-17T10:20:47.862Z,6172
2018-04-17T10:21:47.605Z,5892
2018-04-17T10:22:47.608Z,5952
2018-04-17T10:23:47.339Z,6176
2018-04-17T10:24:47.590Z,6584
2018-04-17T10:25:47.592Z,7460
2018-04-17T10:26:47.326Z,8008
2018-04-17T10:27:47.593Z,7576
2018-04-17T10:28:47.838Z,7008
2018-04-17T10:29:47.663Z,6864
2018-04-17T10:30:47.563Z,6900
2018-04-17T10:31:47.562Z,6784
2018-04-17T10:32:47.555Z,6560
2018-04-17T10:33:47.561Z,6316
2018-04-17T10:34:47.549Z,6152
2018-04-17T10:35:47.291Z,6044
2018-04-17T10:36:47.810Z,6020
2018-04-17T10:37:47.797Z,6140
2018-04-17T10:38:47.794Z,6304
2018-04-17T10:39:47.961Z,6488
2018-04-17T10:40:47.795Z,6740
2018-04-17T10:41:47.807Z,6972
2018-04-17T10:42:47.823Z,7648
2018-04-17T10:43:47.255Z,8520
2018-04-17T10:44:47.253Z,8976
2018-04-17T10:45:47.509Z,8776
2018-04-17T10:46:47.506Z,7860
2018-04-17T10:47:47.244Z,7096
2018-04-17T10:48:47.503Z,6616
2018-04-17T10:49:47.494Z,6356
2018-04-17T10:50:47.748Z,6276
2018-04-17T10:51:47.742Z,6232
2018-04-17T10:52:47.488Z,6428
2018-04-17T10:53:47.527Z,6672
2018-04-17T10:54:47.226Z,7048
2018-04-17T10:55:47.730Z,7516
2018-04-17T10:56:47.728Z,8044
2018-04-17T10:57:47.462Z,9132
2018-04-17T10:58:47.460Z,9924
2018-04-17T10:59:47.923Z,9668
2018-04-17T11:00:47.457Z,8788
2018-04-17T11:01:47.446Z,8032
2018-04-17T11:02:47.192Z,7676
2018-04-17T11:03:47.451Z,7072
2018-04-17T11:04:47.744Z,6852
2018-04-17T11:05:47.188Z,7052
2018-04-17T11:06:47.173Z,7224
2018-04-17T11:07:47.427Z,7216
2018-04-17T11:08:47.689Z,6876
2018-04-17T11:09:47.677Z,7124
2018-04-17T11:10:47.158Z,7604
2018-04-17T11:11:47.420Z,7976
2018-04-17T11:12:47.422Z,8236
2018-04-17T11:13:47.414Z,8904
2018-04-17T11:14:47.663Z,8900
2018-04-17T11:15:47.402Z,8456
2018-04-17T11:16:47.399Z,8212
2018-04-17T11:17:46.882Z,7476
2018-04-17T11:18:46.880Z,7120
2018-04-17T11:19:47.397Z,6720
2018-04-17T11:20:47.649Z,6700
2018-04-17T11:21:47.383Z,6868
2018-04-17T11:22:47.385Z,7404
2018-04-17T11:23:47.639Z,8504
2018-04-17T11:24:47.115Z,9320
2018-04-17T11:25:47.429Z,9532
2018-04-17T11:26:47.112Z,9640
2018-04-17T11:27:47.624Z,8780
2018-04-17T11:28:47.620Z,7728
2018-04-17T11:29:47.375Z,7480
2018-04-17T11:30:47.614Z,7532
2018-04-17T11:31:47.611Z,8176
2018-04-17T11:32:47.349Z,8884
2018-04-17T11:33:47.347Z,9044
2018-04-17T11:34:47.496Z,9072
2018-04-17T11:35:47.606Z,8712
2018-04-17T11:36:47.598Z,8532
2018-04-17T11:37:47.611Z,8440
2018-04-17T11:38:47.331Z,8700
2018-04-17T11:39:47.593Z,9060
2018-04-17T11:40:47.323Z,9788
2018-04-17T11:41:47.066Z,9424
2018-04-17T11:42:47.582Z,8236
2018-04-17T11:43:47.313Z,7524
2018-04-17T11:44:47.053Z,7632
2018-04-17T11:45:47.314Z,7888
2018-04-17T11:46:47.305Z,8276
2018-04-17T11:47:47.299Z,7968
2018-04-17T11:48:47.693Z,7876
2018-04-17T11:49:47.294Z,7688
2018-04-17T11:50:46.777Z,7232
2018-04-17T11:51:47.033Z,7324
2018-04-17T11:52:47.040Z,7364
2018-04-17T11:53:47.290Z,7232
2018-04-17T11:54:47.536Z,7352
2018-04-17T11:55:47.543Z,7520
2018-04-17T11:56:47.281Z,7276
2018-04-17T11:57:47.526Z,7000
2018-04-17T11:58:47.266Z,6468
2018-04-17T11:59:47.267Z,6164
2018-04-17T12:00:47.260Z,5576
2018-04-17T12:01:47.262Z,5176
2018-04-17T12:02:46.999Z,5120
2018-04-17T12:03:47.503Z,5112
2018-04-17T12:04:47.505Z,5252
2018-04-17T12:05:47.243Z,5400
2018-04-17T12:06:47.500Z,5356
2018-04-17T12:07:47.496Z,5384
2018-04-17T12:08:47.501Z,5420
2018-04-17T12:09:47.233Z,5448
2018-04-17T12:10:46.967Z,5260
2018-04-17T12:11:47.225Z,5452
2018-04-17T12:12:46.968Z,5436
2018-04-17T12:13:47.222Z,5300
2018-04-17T12:14:47.379Z,5308
2018-04-17T12:15:46.960Z,5424
2018-04-17T12:16:47.464Z,5604
2018-04-17T12:17:47.457Z,5692
2018-04-17T12:18:47.198Z,5612
2018-04-17T12:19:47.199Z,5472
2018-04-17T12:20:46.937Z,5508
2018-04-17T12:21:46.932Z,5408
2018-04-17T12:22:47.186Z,5328
2018-04-17T12:23:47.180Z,5180
2018-04-17T12:24:47.177Z,5044
2018-04-17T12:25:47.493Z,5064
2018-04-17T12:26:47.174Z,5064
2018-04-17T12:27:47.176Z,4908
2018-04-17T12:28:47.429Z,4836
2018-04-17T12:29:47.164Z,4848
2018-04-17T12:30:47.207Z,4884
2018-04-17T12:31:47.164Z,4944
2018-04-17T12:32:47.424Z,5144
2018-04-17T12:33:47.153Z,5452
2018-04-17T12:34:47.403Z,5728
2018-04-17T12:35:47.143Z,5904
2018-04-17T12:36:47.141Z,5936
2018-04-17T12:37:47.396Z,6068
2018-04-17T12:38:46.880Z,6248
2018-04-17T12:39:47.133Z,6484
2018-04-17T12:40:47.393Z,6292
2018-04-17T12:41:46.869Z,6016
2018-04-17T12:42:47.124Z,5980
2018-04-17T12:43:47.128Z,6032
2018-04-17T12:44:47.130Z,6012
2018-04-17T12:45:47.108Z,5804
2018-04-17T12:46:47.367Z,5728
2018-04-17T12:47:47.107Z,5732
2018-04-17T12:48:47.120Z,5800
2018-04-17T12:49:46.582Z,5884
2018-04-17T12:50:47.096Z,5780
2018-04-17T12:51:47.097Z,5648
2018-04-17T12:52:47.100Z,5584
2018-04-17T12:53:47.351Z,5556
2018-04-17T12:54:46.829Z,5656
2018-04-17T12:55:47.079Z,5616
2018-04-17T12:56:47.082Z,5424
2018-04-17T12:57:47.330Z,5344
2018-04-17T12:58:47.077Z,4972
2018-04-17T12:59:47.079Z,5088
2018-04-17T13:00:47.324Z,5336
2018-04-17T13:01:47.375Z,5748
2018-04-17T13:02:47.060Z,6292
2018-04-17T13:03:46.801Z,6556
2018-04-17T13:04:47.321Z,6836
2018-04-17T13:05:47.321Z,6820
2018-04-17T13:06:47.306Z,6796
2018-04-17T13:07:47.529Z,6756
2018-04-17T13:08:47.357Z,6876
2018-04-17T13:09:46.785Z,7060
2018-04-17T13:10:47.303Z,7128
2018-04-17T13:11:47.313Z,6624
2018-04-17T13:12:46.779Z,5736
2018-04-17T13:13:47.048Z,5356
2018-04-17T13:14:47.297Z,5320
2018-04-17T13:15:47.518Z,5332
2018-04-17T13:16:46.768Z,5756
2018-04-17T13:17:46.761Z,6128
2018-04-17T13:18:47.275Z,6496
2018-04-17T13:19:47.347Z,6468
2018-04-17T13:20:47.279Z,6680
2018-04-17T13:21:47.277Z,7144
2018-04-17T13:22:47.023Z,7872
2018-04-17T13:23:46.748Z,8288
2018-04-17T13:24:47.015Z,7572
2018-04-17T13:25:47.004Z,7400
2018-04-17T13:26:46.741Z,7228
2018-04-17T13:27:46.998Z,6952
2018-04-17T13:28:47.265Z,6404
2018-04-17T13:29:46.992Z,6164
2018-04-17T13:30:47.249Z,5812
2018-04-17T13:31:46.995Z,5532
2018-04-17T13:32:47.247Z,5396
2018-04-17T13:33:46.727Z,5424
2018-04-17T13:34:47.237Z,5444
2018-04-17T13:35:46.722Z,5580
2018-04-17T13:36:46.723Z,5532
2018-04-17T13:37:46.972Z,5340
2018-04-17T13:38:46.972Z,5080
2018-04-17T13:39:47.220Z,4964
2018-04-17T13:40:46.970Z,4852
2018-04-17T13:41:46.964Z,4684
2018-04-17T13:42:47.231Z,4608